Time;durP1;ratioP1;P1;durP2;ratioP2;P2;SDS_P1;SDS_P2;PMS_P1;PMS_P2;Temp;Humidity;BMP_temperature;BMP_pressure;BME280_temperature;BME280_humidity;BME280_pressure;Samples;Min_cycle;Max_cycle;Signal;HPM_P1;HPM_P2
2021/09/01 00:01:27;;;;;;;;;6.00;4.00;;;;;26.98;41.33;102613.84;5078172;27;45487;-70
2021/09/01 00:03:52;;;;;;;;;5.00;3.00;;;;;26.98;41.40;102619.19;5078759;27;45420;-70
2021/09/01 00:06:18;;;;;;;;;4.25;4.00;;;;;26.99;41.58;102628.84;5078518;27;46322;-70
2021/09/01 00:08:43;;;;;;;;;3.75;3.00;;;;;26.98;41.48;102628.06;5077835;28;45448;-70
2021/09/01 00:11:09;;;;;;;;;3.75;3.75;;;;;26.95;41.46;102636.41;5078541;27;45534;-70
2021/09/01 00:13:34;;;;;;;;;6.75;5.00;;;;;26.91;41.36;102629.72;5078347;27;45420;-70
2021/09/01 00:15:59;;;;;;;;;4.00;4.00;;;;;26.92;41.87;102642.91;5077956;27;47146;-70
2021/09/01 00:18:25;;;;;;;;;4.00;4.00;;;;;26.89;41.63;102629.91;5062215;27;45519;-70
2021/09/01 00:20:50;;;;;;;;;4.00;4.00;;;;;26.95;41.02;102649.75;5077765;28;45494;-70
2021/09/01 00:23:15;;;;;;;;;5.75;4.75;;;;;26.91;41.28;102635.06;5078284;27;45341;-70
2021/09/01 00:25:42;;;;;;;;;3.25;3.00;;;;;26.91;41.32;102635.06;5055446;28;47223;-70
2021/09/01 00:28:08;;;;;;;;;3.00;3.00;;;;;26.88;41.02;102636.22;5078296;27;45598;-70
2021/09/01 00:30:34;;;;;;;;;4.75;4.75;;;;;26.87;41.21;102637.25;5078119;27;45297;-70
2021/09/01 00:32:59;;;;;;;;;6.25;4.00;;;;;26.88;41.18;102638.91;5077445;27;45638;-70
2021/09/01 00:35:24;;;;;;;;;4.00;4.00;;;;;26.87;41.49;102639.91;5078023;27;46612;-70
2021/09/01 00:37:50;;;;;;;;;6.00;5.00;;;;;26.91;41.37;102643.91;5059596;28;45581;-70
2021/09/01 00:40:15;;;;;;;;;3.00;2.50;;;;;26.93;41.38;102647.22;5078222;27;45219;-70
2021/09/01 00:42:42;;;;;;;;;4.00;4.00;;;;;26.92;41.04;102650.09;5078268;27;45480;-70
2021/09/01 00:45:08;;;;;;;;;5.00;4.00;;;;;26.88;41.36;102643.44;5077055;27;46295;-70
2021/09/01 00:47:36;;;;;;;;;4.50;4.50;;;;;26.88;41.60;102646.09;5077512;27;45424;-70
2021/09/01 00:50:08;;;;;;;;;4.75;4.75;;;;;26.89;41.37;102645.06;5077697;27;45482;-70
2021/09/01 00:52:39;;;;;;;;;5.25;4.00;;;;;26.92;41.72;102644.75;5077676;27;45431;-70
2021/09/01 00:55:05;;;;;;;;;4.00;4.00;;;;;26.92;41.16;102650.94;5077346;27;45604;-70
2021/09/01 00:57:31;;;;;;;;;5.00;5.00;;;;;26.93;41.44;102654.44;5077880;27;45359;-70
2021/09/01 00:59:56;;;;;;;;;4.00;4.00;;;;;26.88;41.40;102641.56;5077061;28;45468;-70
2021/09/01 01:02:23;;;;;;;;;4.25;4.25;;;;;26.90;41.30;102650.28;5077909;27;45525;-70
2021/09/01 01:04:48;;;;;;;;;3.75;3.75;;;;;26.89;41.37;102645.06;5077420;27;45706;-70
2021/09/01 01:07:13;;;;;;;;;5.00;5.00;;;;;26.90;41.47;102654.78;5077497;27;45449;-70
2021/09/01 01:09:40;;;;;;;;;5.00;4.25;;;;;26.91;41.28;102649.25;5078004;27;45391;-70
2021/09/01 01:12:17;;;;;;;;;7.00;6.00;;;;;26.86;41.27;102648.91;5077091;27;45266;-70
2021/09/01 01:14:45;;;;;;;;;5.00;5.00;;;;;26.89;41.09;102648.59;5058888;28;45553;-70
2021/09/01 01:17:14;;;;;;;;;3.00;3.00;;;;;26.91;41.32;102653.75;5075866;27;45381;-70
2021/09/01 01:19:41;;;;;;;;;6.25;5.25;;;;;26.90;41.08;102650.28;5077498;27;45494;-70
2021/09/01 01:22:08;;;;;;;;;5.00;5.00;;;;;26.82;41.42;102629.75;5077278;27;45285;-70
2021/09/01 01:25:05;;;;;;;;;5.00;3.00;;;;;26.71;41.11;102609.56;5077137;27;46319;-70
2021/09/01 01:27:39;;;;;;;;;7.75;4.75;;;;;26.84;41.40;102633.09;4996778;28;45413;-70
2021/09/01 01:30:15;;;;;;;;;5.00;5.00;;;;;26.89;41.15;102640.56;5012988;28;45397;-70
2021/09/01 01:32:44;;;;;;;;;4.50;4.50;;;;;26.74;41.45;102621.75;5009622;28;45471;-70
2021/09/01 01:35:10;;;;;;;;;2.75;2.75;;;;;26.79;41.37;102630.09;5010257;28;47655;-70
2021/09/01 01:37:36;;;;;;;;;5.00;5.00;;;;;26.83;41.49;102641.25;5012063;28;45401;-70
2021/09/01 01:40:02;;;;;;;;;3.25;3.25;;;;;26.80;41.42;102641.59;5012124;28;45358;-70
2021/09/01 01:42:28;;;;;;;;;3.00;3.00;;;;;26.80;41.38;102641.59;5012253;28;45370;-70
2021/09/01 01:44:53;;;;;;;;;3.50;3.50;;;;;26.86;41.64;102654.25;5012889;28;46032;-70
2021/09/01 01:47:18;;;;;;;;;5.25;4.75;;;;;26.83;41.58;102647.44;5010374;28;45428;-70
2021/09/01 01:49:44;;;;;;;;;4.75;4.25;;;;;26.79;41.57;102635.44;5012134;28;45556;-70
2021/09/01 01:52:09;;;;;;;;;5.75;4.50;;;;;26.71;41.77;102619.41;5010275;28;45296;-70
2021/09/01 01:54:35;;;;;;;;;3.25;3.25;;;;;26.79;41.47;102630.09;5011915;28;46495;-70
2021/09/01 01:57:00;;;;;;;;;4.00;4.00;;;;;26.79;41.54;102629.25;5013285;28;45381;-70
2021/09/01 01:59:29;;;;;;;;;4.00;4.00;;;;;26.79;41.32;102638.09;5012161;28;45495;-72
2021/09/01 02:01:54;;;;;;;;;4.00;4.00;;;;;26.68;41.46;102611.75;5011682;28;45489;-71
2021/09/01 02:04:19;;;;;;;;;4.00;4.00;;;;;26.81;40.93;102627.22;5054446;27;45476;-71
2021/09/01 02:06:45;;;;;;;;;6.00;5.00;;;;;26.84;41.42;102630.41;5076642;27;45428;-70
2021/09/01 02:09:10;;;;;;;;;4.00;3.75;;;;;26.82;41.16;102626.25;5076828;27;45409;-71
2021/09/01 02:11:36;;;;;;;;;3.00;3.00;;;;;26.82;41.15;102634.25;5076201;27;45310;-71
2021/09/01 02:14:02;;;;;;;;;4.50;3.50;;;;;26.81;41.42;102628.06;5076126;27;45412;-71
2021/09/01 02:16:28;;;;;;;;;3.00;3.00;;;;;26.82;41.50;102634.25;5076465;27;45716;-71
2021/09/01 02:18:53;;;;;;;;;4.00;3.50;;;;;26.68;41.01;102617.06;5076732;27;45780;-71
2021/09/01 02:21:18;;;;;;;;;4.00;4.00;;;;;26.82;41.01;102635.09;5076658;27;45223;-71
2021/09/01 02:23:44;;;;;;;;;3.00;2.75;;;;;26.77;40.83;102629.44;5075861;28;45372;-71
2021/09/01 02:26:09;;;;;;;;;3.25;2.50;;;;;26.82;41.43;102632.41;5076301;27;45297;-71
2021/09/01 02:28:34;;;;;;;;;3.75;3.75;;;;;26.69;41.34;102603.56;5076428;27;45623;-71
2021/09/01 02:31:00;;;;;;;;;3.50;3.50;;;;;26.85;41.13;102639.25;5076698;27;45293;-71
2021/09/01 02:33:25;;;;;;;;;3.75;3.25;;;;;26.80;41.33;102626.44;5058087;27;47264;-71
2021/09/01 02:35:50;;;;;;;;;3.00;2.75;;;;;26.82;40.92;102635.09;5075693;28;45651;-71
2021/09/01 02:38:16;;;;;;;;;4.00;3.50;;;;;26.76;41.48;102625.06;5076408;27;45255;-71
2021/09/01 02:40:41;;;;;;;;;6.25;4.50;;;;;26.84;40.93;102645.59;5075927;27;45556;-71
2021/09/01 02:43:07;;;;;;;;;5.25;3.50;;;;;26.75;41.26;102634.13;5076091;27;45605;-71
2021/09/01 02:45:32;;;;;;;;;4.25;2.25;;;;;26.81;41.20;102637.91;5076018;27;45539;-71
2021/09/01 02:47:57;;;;;;;;;4.25;3.00;;;;;26.82;40.99;102635.09;5075611;28;45577;-71
2021/09/01 02:50:23;;;;;;;;;3.50;2.50;;;;;26.83;41.14;102636.75;5076336;27;45298;-71
2021/09/01 02:52:49;;;;;;;;;3.25;3.25;;;;;26.81;41.03;102633.41;5075874;27;45625;-72
2021/09/01 02:55:14;;;;;;;;;4.25;2.75;;;;;26.78;41.04;102627.59;5076405;27;45328;-70
2021/09/01 02:57:39;;;;;;;;;3.25;3.25;;;;;26.80;41.29;102634.44;5079999;27;45498;-71
2021/09/01 03:00:05;;;;;;;;;4.00;4.00;;;;;26.81;41.46;102628.06;5078911;27;45505;-71
2021/09/01 03:02:31;;;;;;;;;6.00;5.00;;;;;26.79;41.15;102629.25;5079546;27;47922;-71
2021/09/01 03:04:56;;;;;;;;;4.25;3.25;;;;;26.82;40.86;102635.09;5056570;28;45470;-71
2021/09/01 03:07:22;;;;;;;;;4.75;4.75;;;;;26.76;41.46;102616.22;5061434;28;45489;-71
2021/09/01 03:09:47;;;;;;;;;3.75;3.25;;;;;26.79;41.52;102627.41;5079584;27;45428;-71
2021/09/01 03:12:12;;;;;;;;;3.50;3.00;;;;;26.73;41.36;102623.59;5079443;27;46494;-71
2021/09/01 03:14:38;;;;;;;;;3.75;3.00;;;;;26.80;41.17;102645.13;5078627;28;45306;-71
2021/09/01 03:17:03;;;;;;;;;2.75;2.75;;;;;26.76;41.17;102642.94;5079423;27;45294;-71
2021/09/01 03:19:29;;;;;;;;;4.50;4.50;;;;;26.81;41.50;102660.13;5079482;27;45280;-71
2021/09/01 03:21:54;;;;;;;;;4.00;3.00;;;;;26.75;41.16;102636.78;5079225;27;45525;-71
2021/09/01 03:24:20;;;;;;;;;4.50;3.00;;;;;26.80;41.56;102650.47;5078956;27;45345;-71
2021/09/01 03:26:45;;;;;;;;;3.00;3.00;;;;;26.74;41.14;102649.28;5078721;28;45346;-71
2021/09/01 03:29:10;;;;;;;;;2.75;2.75;;;;;26.76;40.91;102654.44;5079319;27;45439;-71
2021/09/01 03:31:36;;;;;;;;;4.25;3.00;;;;;26.69;41.09;102640.94;5079153;27;45364;-70
2021/09/01 03:34:01;;;;;;;;;5.00;3.50;;;;;26.79;40.79;102659.47;5078984;27;45444;-70
2021/09/01 03:36:27;;;;;;;;;3.75;2.75;;;;;26.75;41.35;102644.78;5079600;27;45357;-71
2021/09/01 03:38:53;;;;;;;;;3.00;3.00;;;;;26.77;41.38;102647.28;5078071;28;45415;-71
2021/09/01 03:41:18;;;;;;;;;4.00;2.50;;;;;26.76;41.56;102650.94;5078701;27;45483;-70
2021/09/01 03:43:43;;;;;;;;;5.75;4.00;;;;;26.60;41.58;102626.75;5078990;27;45500;-71
2021/09/01 03:46:09;;;;;;;;;2.00;2.00;;;;;26.79;41.04;102643.44;5079485;27;45507;-70
2021/09/01 03:48:34;;;;;;;;;3.25;3.25;;;;;26.69;41.32;102632.94;5079557;27;45340;-71
2021/09/01 03:51:00;;;;;;;;;3.25;3.25;;;;;26.74;41.24;102643.09;5058446;28;46987;-71
2021/09/01 03:53:25;;;;;;;;;3.75;3.75;;;;;26.74;41.22;102646.63;5077134;28;45448;-72
2021/09/01 03:55:51;;;;;;;;;3.25;3.00;;;;;26.75;41.18;102644.78;5077180;28;45545;-71
2021/09/01 03:58:16;;;;;;;;;4.00;3.00;;;;;26.73;41.18;102639.59;5077482;28;45534;-71
2021/09/01 04:00:43;;;;;;;;;5.00;5.00;;;;;26.72;41.61;102640.63;5077315;28;45414;-71
2021/09/01 04:03:09;;;;;;;;;4.50;4.00;;;;;26.75;40.94;102639.44;5077442;28;45561;-71
2021/09/01 04:05:34;;;;;;;;;2.75;2.75;;;;;26.73;41.26;102628.91;5077465;28;45338;-71
2021/09/01 04:07:59;;;;;;;;;4.25;2.75;;;;;26.71;41.43;102625.59;5076480;28;45646;-71
2021/09/01 04:10:25;;;;;;;;;4.00;2.75;;;;;26.69;41.45;102624.94;5077150;28;45415;-71
2021/09/01 04:12:50;;;;;;;;;4.75;4.00;;;;;26.76;41.08;102634.91;5076832;28;45488;-71
2021/09/01 04:15:16;;;;;;;;;4.00;3.50;;;;;26.75;41.25;102642.13;5077246;28;45684;-71
2021/09/01 04:17:41;;;;;;;;;3.25;3.25;;;;;26.74;41.03;102645.78;5077839;28;45269;-71
2021/09/01 04:20:07;;;;;;;;;5.25;4.00;;;;;26.76;40.99;102640.25;5076810;28;46017;-71
2021/09/01 04:22:32;;;;;;;;;4.50;2.00;;;;;26.70;40.95;102644.47;5076541;28;45666;-71
2021/09/01 04:24:58;;;;;;;;;2.25;2.25;;;;;26.73;40.97;102647.59;5077049;28;45353;-71
2021/09/01 04:27:23;;;;;;;;;3.00;3.00;;;;;26.77;41.33;102652.63;5076978;28;45326;-71
2021/09/01 04:29:49;;;;;;;;;4.00;4.00;;;;;26.73;41.11;102642.28;5077524;28;45560;-71
2021/09/01 04:32:14;;;;;;;;;5.00;5.00;;;;;26.69;41.31;102626.75;5076499;28;45358;-71
2021/09/01 04:34:40;;;;;;;;;4.00;3.25;;;;;26.55;41.29;102598.91;5075605;28;45642;-71
2021/09/01 04:37:05;;;;;;;;;4.50;4.50;;;;;26.78;41.48;102630.28;5077840;27;45313;-71
2021/09/01 04:39:30;;;;;;;;;3.00;3.00;;;;;26.70;40.72;102613.22;5078040;27;45654;-71
2021/09/01 04:41:56;;;;;;;;;5.00;5.00;;;;;26.78;41.14;102617.72;5058983;28;45444;-71
2021/09/01 04:44:21;;;;;;;;;4.00;4.00;;;;;26.72;40.89;102613.91;5077892;27;45490;-71
2021/09/01 04:46:47;;;;;;;;;3.00;3.00;;;;;26.76;41.25;102621.56;5077789;27;45466;-71
2021/09/01 04:49:12;;;;;;;;;4.00;3.00;;;;;26.72;40.76;102607.75;5077776;27;46384;-71
2021/09/01 04:51:37;;;;;;;;;3.75;3.75;;;;;26.72;41.13;102619.25;5077563;27;45466;-70
2021/09/01 04:54:03;;;;;;;;;2.25;2.25;;;;;26.77;41.16;102632.09;5058963;27;45321;-71
2021/09/01 04:56:28;;;;;;;;;3.00;2.50;;;;;26.79;40.76;102642.59;5078233;27;45266;-71
2021/09/01 04:58:53;;;;;;;;;3.25;3.00;;;;;26.77;41.10;102639.28;5077394;27;46214;-71
2021/09/01 05:01:19;;;;;;;;;3.50;2.00;;;;;26.76;41.01;102646.44;5077566;27;45459;-71
2021/09/01 05:03:45;;;;;;;;;3.75;3.75;;;;;26.79;40.95;102653.28;5077867;27;45686;-71
2021/09/01 05:06:10;;;;;;;;;4.50;3.50;;;;;26.77;41.31;102648.13;5077250;27;45361;-71
2021/09/01 05:08:36;;;;;;;;;4.00;4.00;;;;;26.73;41.17;102646.78;5058876;28;47082;-71
2021/09/01 05:11:02;;;;;;;;;2.50;2.50;;;;;26.72;41.08;102648.63;5059297;28;45554;-71
2021/09/01 05:13:27;;;;;;;;;3.00;2.67;;;;;26.80;41.08;102660.31;5077456;27;45564;-71
2021/09/01 05:15:53;;;;;;;;;2.50;2.50;;;;;26.66;40.96;102638.63;5077513;27;45758;-71
2021/09/01 05:18:18;;;;;;;;;4.50;4.50;;;;;26.76;41.26;102653.59;5072962;28;46006;-71
2021/09/01 05:20:46;;;;;;;;;3.00;3.00;;;;;26.69;40.91;102646.28;5076153;28;45559;-71
2021/09/01 05:23:16;;;;;;;;;3.25;2.00;;;;;26.71;41.22;102644.28;5076021;28;45452;-71
2021/09/01 05:25:54;;;;;;;;;4.50;3.00;;;;;26.80;40.78;102662.97;5076026;28;45424;-71
2021/09/01 05:28:24;;;;;;;;;2.75;2.75;;;;;26.67;41.29;102645.63;5075560;28;45614;-71
2021/09/01 05:30:51;;;;;;;;;3.00;3.00;;;;;26.63;40.84;102639.78;5075218;28;45517;-71
2021/09/01 05:33:19;;;;;;;;;3.00;2.25;;;;;26.77;41.05;102657.97;5075966;28;45626;-70
2021/09/01 05:35:45;;;;;;;;;2.00;2.00;;;;;26.71;41.20;102654.97;5076062;28;45361;-71
2021/09/01 05:38:12;;;;;;;;;4.50;3.25;;;;;26.71;41.21;102649.63;5075512;28;47302;-71
2021/09/01 05:40:40;;;;;;;;;2.00;2.00;;;;;26.73;40.99;102655.63;5075319;28;45412;-71
2021/09/01 05:43:06;;;;;;;;;3.50;2.00;;;;;26.75;41.37;102666.16;5075749;28;45361;-71
2021/09/01 05:45:32;;;;;;;;;2.00;2.00;;;;;26.74;40.83;102664.47;5075506;28;45310;-71
2021/09/01 05:48:00;;;;;;;;;2.00;2.00;;;;;26.76;40.98;102670.47;5075893;28;47476;-71
2021/09/01 05:50:26;;;;;;;;;4.00;4.00;;;;;26.68;41.23;102657.97;5075383;28;45374;-71
2021/09/01 05:52:52;;;;;;;;;2.50;2.00;;;;;26.72;41.13;102664.66;5075344;28;45277;-71
2021/09/01 05:55:18;;;;;;;;;3.00;2.00;;;;;26.71;40.53;102670.97;5075529;28;45328;-71
2021/09/01 05:57:46;;;;;;;;;3.25;3.25;;;;;26.72;40.79;102674.50;5074254;28;45596;-71
2021/09/01 06:00:16;;;;;;;;;3.25;3.25;;;;;26.74;40.97;102670.66;5058406;27;45641;-71
2021/09/01 06:03:20;;;;;;;;;3.50;3.50;;;;;26.75;40.77;102674.16;5074504;28;45294;-71
2021/09/01 06:05:46;;;;;;;;;3.00;3.00;;;;;26.69;41.28;102656.13;5012917;28;45679;-71
2021/09/01 06:08:13;;;;;;;;;3.75;3.50;;;;;26.58;41.01;102638.63;5013922;28;45366;-71
2021/09/01 06:10:39;;;;;;;;;2.50;2.50;;;;;26.69;41.05;102656.97;5010213;28;45395;-72
2021/09/01 06:13:10;;;;;;;;;2.00;2.00;;;;;26.70;40.66;102649.81;5003544;28;45448;-72
2021/09/01 06:15:38;;;;;;;;;4.00;4.00;;;;;26.68;40.78;102647.28;5014115;28;45473;-72
2021/09/01 06:18:05;;;;;;;;;2.75;2.75;;;;;26.74;40.77;102659.13;5013145;28;47165;-71
2021/09/01 06:20:31;;;;;;;;;3.50;2.00;;;;;26.73;41.14;102647.59;5002689;28;45414;-72
2021/09/01 06:22:57;;;;;;;;;4.50;2.00;;;;;26.73;41.12;102658.28;5007799;28;45615;-74
2021/09/01 06:25:23;;;;;;;;;3.50;3.00;;;;;26.72;40.71;102650.47;5012543;28;45441;-72
2021/09/01 06:27:49;;;;;;;;;2.00;2.00;;;;;26.72;40.83;102650.47;5011705;28;46442;-71
2021/09/01 06:30:14;;;;;;;;;4.50;3.25;;;;;26.76;40.83;102651.78;5011550;28;45383;-71
2021/09/01 06:32:40;;;;;;;;;3.50;2.00;;;;;26.77;40.83;102632.09;5012119;28;45504;-72
2021/09/01 06:35:06;;;;;;;;;4.25;4.25;;;;;26.95;41.50;102647.91;4991602;28;45596;-71
2021/09/01 06:37:33;;;;;;;;;2.25;2.25;;;;;27.07;41.10;102651.06;5003804;28;46460;-71
2021/09/01 06:39:58;;;;;;;;;2.75;2.75;;;;;27.15;40.62;102639.53;4999304;28;45574;-73
2021/09/01 06:42:23;;;;;;;;;5.75;3.00;;;;;27.31;41.17;102642.31;5070350;28;45257;-73
2021/09/01 06:44:49;;;;;;;;;4.00;3.00;;;;;27.42;40.90;102643.78;5074626;28;45393;-73
2021/09/01 06:47:14;;;;;;;;;3.00;3.00;;;;;27.54;40.46;102654.91;5073682;28;46304;-73
2021/09/01 06:49:39;;;;;;;;;5.00;3.75;;;;;27.65;39.93;102656.38;5074105;28;45480;-73
2021/09/01 06:52:05;;;;;;;;;4.25;2.75;;;;;27.63;40.15;102643.19;5054393;28;45350;-74
2021/09/01 06:54:30;;;;;;;;;2.00;2.00;;;;;27.72;40.34;102652.84;5071512;28;45335;-74
2021/09/01 06:56:56;;;;;;;;;6.00;3.00;;;;;27.82;39.73;102655.31;5061413;28;46242;-73
2021/09/01 06:59:21;;;;;;;;;5.00;3.00;;;;;27.90;40.25;102651.75;5073665;28;45459;-72
2021/09/01 07:01:46;;;;;;;;;4.25;3.00;;;;;27.91;40.34;102656.09;5073847;28;45345;-73
2021/09/01 07:04:12;;;;;;;;;1.75;1.75;;;;;27.95;40.21;102656.56;5074409;28;45367;-72
2021/09/01 07:06:37;;;;;;;;;3.50;3.50;;;;;28.00;40.07;102656.06;5073242;28;46561;-73
2021/09/01 07:09:02;;;;;;;;;3.25;3.00;;;;;28.02;39.55;102652.19;5075323;27;45299;-72
2021/09/01 07:11:28;;;;;;;;;3.00;3.00;;;;;28.09;40.08;102662.16;5075933;27;45609;-72
2021/09/01 07:13:53;;;;;;;;;3.50;3.50;;;;;28.07;40.00;102663.19;5075809;27;45430;-72
2021/09/01 07:16:18;;;;;;;;;2.00;2.00;;;;;28.12;40.01;102659.13;5075335;27;46480;-72
2021/09/01 07:18:44;;;;;;;;;3.00;3.00;;;;;28.06;39.90;102647.31;5075629;27;45416;-72
2021/09/01 07:21:09;;;;;;;;;3.25;2.25;;;;;28.16;39.47;102663.13;5075352;27;45356;-72
2021/09/01 07:23:35;;;;;;;;;3.00;3.00;;;;;28.14;39.92;102643.72;5075527;27;45574;-72
2021/09/01 07:26:00;;;;;;;;;4.00;3.00;;;;;28.18;40.04;102655.75;5075463;27;45516;-73
2021/09/01 07:28:26;;;;;;;;;3.50;3.50;;;;;28.17;39.58;102649.56;5075536;27;45368;-72
2021/09/01 07:30:51;;;;;;;;;2.50;2.00;;;;;28.18;40.14;102647.75;5075324;27;45453;-72
2021/09/01 07:33:17;;;;;;;;;3.00;3.00;;;;;28.14;39.60;102651.75;5075806;27;45341;-72
2021/09/01 07:35:42;;;;;;;;;3.00;3.00;;;;;28.18;39.73;102664.59;5074766;28;47389;-72
2021/09/01 07:38:08;;;;;;;;;5.50;3.75;;;;;28.21;39.56;102667.97;5075354;27;45749;-72
2021/09/01 07:40:33;;;;;;;;;2.00;2.00;;;;;28.14;39.83;102652.59;5075376;27;45552;-73
2021/09/01 07:42:59;;;;;;;;;3.50;3.50;;;;;28.12;40.03;102656.47;5078987;27;45633;-72
2021/09/01 07:45:24;;;;;;;;;4.00;3.75;;;;;28.18;39.40;102661.13;5078291;27;46406;-72
2021/09/01 07:47:52;;;;;;;;;3.50;3.50;;;;;28.11;39.72;102644.09;5078122;28;45333;-72
2021/09/01 07:50:19;;;;;;;;;4.25;3.50;;;;;28.17;39.97;102659.44;5075342;27;45235;-72
2021/09/01 07:52:44;;;;;;;;;4.00;3.00;;;;;28.14;39.25;102665.13;5071768;28;45558;-73
2021/09/01 07:55:10;;;;;;;;;4.25;4.00;;;;;28.09;40.05;102662.16;5058520;28;46437;-72
2021/09/01 07:57:36;;;;;;;;;3.50;3.50;;;;;27.93;39.99;102634.50;5077415;28;45307;-72
2021/09/01 08:00:01;;;;;;;;;2.75;1.50;;;;;27.98;40.08;102647.34;5077412;28;45393;-72
2021/09/01 08:02:26;;;;;;;;;4.00;3.00;;;;;27.98;39.56;102656.22;5077445;28;45364;-72
2021/09/01 08:04:52;;;;;;;;;7.00;3.25;;;;;27.94;39.86;102658.44;5077030;28;45340;-72
2021/09/01 08:07:17;;;;;;;;;4.75;3.00;;;;;27.89;40.21;102646.59;5076838;28;45441;-72
2021/09/01 08:09:42;;;;;;;;;3.75;3.75;;;;;27.78;39.83;102632.59;5077369;28;45436;-72
2021/09/01 08:12:09;;;;;;;;;3.00;3.00;;;;;27.81;40.08;102653.66;5077641;28;45319;-72
2021/09/01 08:14:36;;;;;;;;;5.25;4.00;;;;;27.85;40.31;102649.63;5076442;28;45553;-73
2021/09/01 08:17:01;;;;;;;;;4.25;2.75;;;;;27.82;40.16;102654.47;5076691;28;45406;-72
2021/09/01 08:19:26;;;;;;;;;3.25;3.25;;;;;27.81;40.50;102652.81;5076965;28;45502;-73
2021/09/01 08:21:52;;;;;;;;;4.25;1.75;;;;;27.79;40.21;102657.50;5077192;28;45377;-73
2021/09/01 08:24:17;;;;;;;;;4.00;4.00;;;;;27.75;39.99;102648.97;5077035;28;45354;-72
2021/09/01 08:26:42;;;;;;;;;3.25;3.25;;;;;27.69;39.71;102663.06;5077679;28;45388;-72
2021/09/01 08:29:08;;;;;;;;;3.25;3.25;;;;;27.68;39.96;102651.53;5058310;28;45507;-72
2021/09/01 08:31:33;;;;;;;;;3.75;3.75;;;;;27.70;40.14;102646.00;5076952;28;45435;-72
2021/09/01 08:33:58;;;;;;;;;4.00;3.75;;;;;27.75;40.61;102651.66;5075489;28;46311;-72
2021/09/01 08:36:24;;;;;;;;;3.50;3.50;;;;;27.71;40.58;102636.97;5078005;27;45538;-72
2021/09/01 08:38:49;;;;;;;;;2.75;2.75;;;;;27.76;39.93;102636.44;5077468;28;45321;-72
2021/09/01 08:41:16;;;;;;;;;3.50;3.00;;;;;27.73;39.79;102649.16;5077961;27;45390;-72
2021/09/01 08:43:42;;;;;;;;;4.00;3.75;;;;;27.68;40.39;102638.16;5077248;27;46322;-73
2021/09/01 08:46:07;;;;;;;;;6.50;4.00;;;;;27.69;40.28;102647.00;5077830;27;45528;-72
2021/09/01 08:48:34;;;;;;;;;6.00;4.00;;;;;27.65;40.64;102640.34;5077995;27;45300;-73
2021/09/01 08:51:00;;;;;;;;;4.25;3.50;;;;;27.63;39.80;102653.88;5077039;27;45500;-73
2021/09/01 08:53:26;;;;;;;;;5.00;3.50;;;;;27.54;40.09;102636.22;5077611;27;46330;-75
2021/09/01 08:55:51;;;;;;;;;7.25;7.00;;;;;27.52;38.96;102652.44;5077404;27;45537;-74
2021/09/01 08:58:17;;;;;;;;;10.25;6.50;;;;;27.47;38.51;102657.47;5079036;27;45726;-74
2021/09/01 09:00:43;;;;;;;;;5.25;5.25;;;;;27.39;39.26;102645.81;5077609;27;45595;-74
2021/09/01 09:03:09;;;;;;;;;5.25;3.75;;;;;27.39;40.04;102643.13;5076794;27;46274;-73
2021/09/01 09:05:39;;;;;;;;;4.25;4.25;;;;;27.43;39.82;102656.16;5072995;27;45535;-73
2021/09/01 09:08:08;;;;;;;;;4.25;4.25;;;;;27.41;40.04;102648.28;5073679;28;45519;-73
2021/09/01 09:10:37;;;;;;;;;6.00;4.25;;;;;27.38;39.88;102652.16;5074110;28;45806;-73
2021/09/01 09:13:04;;;;;;;;;5.00;5.00;;;;;27.43;40.39;102664.19;5075086;28;45354;-73
2021/09/01 09:15:30;;;;;;;;;6.25;5.25;;;;;27.41;40.09;102672.34;5066846;28;45599;-73
2021/09/01 09:17:55;;;;;;;;;5.00;5.00;;;;;27.38;40.12;102659.31;5072001;28;45330;-73
2021/09/01 09:20:34;;;;;;;;;3.50;3.50;;;;;27.39;40.21;102666.34;5075624;28;45282;-73
2021/09/01 09:23:06;;;;;;;;;4.00;4.00;;;;;27.39;39.73;102667.19;5075499;28;45769;-73
2021/09/01 09:25:34;;;;;;;;;4.75;4.75;;;;;27.34;39.72;102658.03;5075069;28;45518;-73
2021/09/01 09:28:05;;;;;;;;;4.25;4.25;;;;;27.39;39.73;102669.88;5075251;28;45306;-73
2021/09/01 09:30:45;;;;;;;;;5.25;5.00;;;;;27.35;39.54;102663.19;5059517;28;45299;-73
2021/09/01 09:33:19;;;;;;;;;5.00;5.00;;;;;27.38;40.28;102675.38;5075532;28;46003;-73
2021/09/01 09:35:50;;;;;;;;;7.00;5.75;;;;;27.36;39.83;102659.50;5074565;28;45461;-73
2021/09/01 09:38:26;;;;;;;;;9.00;7.25;;;;;27.33;40.01;102645.66;5075237;28;45357;-73
2021/09/01 09:40:51;;;;;;;;;6.00;4.75;;;;;27.33;39.85;102656.34;5074943;28;45426;-73
2021/09/01 09:43:19;;;;;;;;;7.00;5.75;;;;;27.30;40.46;102644.16;5074588;28;46647;-72
2021/09/01 09:45:46;;;;;;;;;9.25;6.00;;;;;27.28;39.97;102646.19;5075425;28;45481;-73
2021/09/01 09:48:12;;;;;;;;;6.75;6.25;;;;;27.25;40.36;102647.34;5075663;28;45412;-73
2021/09/01 09:50:44;;;;;;;;;6.75;6.25;;;;;27.29;40.22;102650.53;5076093;28;45506;-73
2021/09/01 09:53:11;;;;;;;;;6.25;6.25;;;;;27.23;39.93;102638.69;5075232;28;46168;-73
2021/09/01 09:55:37;;;;;;;;;6.75;6.50;;;;;27.27;39.95;102645.34;5075096;28;45546;-73
2021/09/01 09:58:03;;;;;;;;;6.00;6.00;;;;;27.29;40.10;102647.84;5075025;28;45330;-73
2021/09/01 10:00:29;;;;;;;;;6.50;6.50;;;;;27.29;40.15;102655.88;5075504;28;45376;-73
2021/09/01 10:02:55;;;;;;;;;5.75;5.75;;;;;27.26;40.28;102653.53;5071432;28;45357;-73
2021/09/01 10:05:27;;;;;;;;;10.50;8.00;;;;;27.31;39.97;102655.69;5074201;28;45523;-73
2021/09/01 10:07:55;;;;;;;;;9.00;6.00;;;;;27.26;40.48;102650.88;5075306;28;45475;-73
2021/09/01 10:10:21;;;;;;;;;5.75;5.00;;;;;27.25;40.51;102644.69;5056012;28;45474;-73
2021/09/01 10:12:47;;;;;;;;;5.75;5.75;;;;;27.31;40.05;102655.69;5074922;28;45548;-73
2021/09/01 10:15:29;;;;;;;;;7.75;6.00;;;;;27.20;40.23;102644.38;5075311;28;45424;-72
2021/09/01 10:17:59;;;;;;;;;4.75;4.75;;;;;27.28;39.90;102656.88;5075657;28;45349;-73
2021/09/01 10:20:28;;;;;;;;;5.75;5.75;;;;;27.29;39.79;102655.88;5073979;28;45479;-73
2021/09/01 10:23:05;;;;;;;;;6.50;5.50;;;;;27.28;40.35;102654.19;5076067;27;46526;-73
2021/09/01 10:25:45;;;;;;;;;8.25;6.25;;;;;27.29;40.30;102647.84;5075881;27;45684;-73
2021/09/01 10:28:20;;;;;;;;;7.00;6.25;;;;;27.30;40.10;102652.16;5076061;27;45398;-73
2021/09/01 10:31:11;;;;;;;;;7.50;6.00;;;;;27.28;40.47;102647.00;5072719;27;45510;-73
2021/09/01 10:33:38;;;;;;;;;5.00;5.00;;;;;27.22;39.91;102645.00;5070984;28;45506;-74
2021/09/01 10:36:22;;;;;;;;;5.50;5.25;;;;;27.28;40.05;102643.50;5075034;28;45391;-72
2021/09/01 10:38:48;;;;;;;;;8.25;6.50;;;;;27.28;40.40;102643.50;5075580;28;45399;-74
2021/09/01 10:41:29;;;;;;;;;7.00;7.00;;;;;27.27;39.89;102644.53;5070193;27;46144;-73
2021/09/01 10:43:55;;;;;;;;;5.75;5.50;;;;;27.13;40.43;102624.69;5073103;27;46551;-73
2021/09/01 10:46:20;;;;;;;;;5.75;5.75;;;;;27.27;40.52;102650.69;5073275;27;45551;-73
2021/09/01 10:48:59;;;;;;;;;6.00;6.00;;;;;27.28;40.02;102647.00;5077377;27;45488;-73
2021/09/01 10:51:29;;;;;;;;;7.00;5.00;;;;;27.26;40.71;102634.84;5071080;27;45458;-73
2021/09/01 10:53:55;;;;;;;;;6.00;6.00;;;;;27.20;40.29;102622.16;5076371;27;47368;-74
2021/09/01 10:56:20;;;;;;;;;7.00;5.50;;;;;27.26;40.49;102632.16;5073057;27;45634;-73
2021/09/01 10:58:48;;;;;;;;;9.00;6.25;;;;;27.27;40.21;102621.28;5077095;27;45541;-72
2021/09/01 11:01:19;;;;;;;;;6.75;6.75;;;;;27.22;40.73;102620.97;5072268;27;45426;-73
2021/09/01 11:04:04;;;;;;;;;7.25;6.00;;;;;27.32;40.15;102633.31;5073394;27;46203;-73
2021/09/01 11:06:35;;;;;;;;;6.50;6.50;;;;;27.30;40.38;102622.78;5066847;27;45607;-73
2021/09/01 11:09:04;;;;;;;;;5.25;5.25;;;;;27.34;40.27;102631.28;5077740;27;45456;-73
2021/09/01 11:11:44;;;;;;;;;5.25;5.25;;;;;27.35;40.56;102632.97;5074326;27;45390;-73
2021/09/01 11:14:14;;;;;;;;;11.75;8.25;;;;;27.35;40.26;102641.81;5076334;27;46407;-72
2021/09/01 11:16:39;;;;;;;;;8.25;4.25;;;;;27.33;40.24;102634.97;5077416;27;45420;-73
2021/09/01 11:19:06;;;;;;;;;9.00;8.00;;;;;27.36;40.30;102629.28;5075729;27;45522;-73
2021/09/01 11:21:38;;;;;;;;;6.00;5.25;;;;;27.39;40.97;102634.28;5077756;27;45403;-73
2021/09/01 11:24:04;;;;;;;;;6.50;5.75;;;;;27.39;40.05;102632.44;5069681;28;45431;-73